createdAt,value
2022-09-21T00:01:11.175Z,7.93
2022-09-21T00:03:38.511Z,6.27
2022-09-21T00:06:08.015Z,6.10
2022-09-21T00:08:35.342Z,6.03
2022-09-21T00:11:02.456Z,6.67
2022-09-21T00:13:29.749Z,5.43
2022-09-21T00:15:56.827Z,6.57
2022-09-21T00:18:24.413Z,6.10
2022-09-21T00:20:51.845Z,6.27
2022-09-21T00:23:20.484Z,6.07
2022-09-21T00:25:47.567Z,6.57
2022-09-21T00:28:14.669Z,5.43
2022-09-21T00:30:41.755Z,6.23
2022-09-21T00:33:08.873Z,6.57
2022-09-21T00:35:35.989Z,6.40
2022-09-21T00:38:03.476Z,6.73
2022-09-21T00:40:32.445Z,6.30
2022-09-21T00:43:15.356Z,6.50
2022-09-21T00:45:42.855Z,6.40
2022-09-21T00:48:10.303Z,6.70
2022-09-21T00:50:38.731Z,6.50
2022-09-21T00:53:05.835Z,6.47
2022-09-21T00:55:35.057Z,6.73
2022-09-21T00:58:04.951Z,6.40
2022-09-21T01:00:32.204Z,8.50
2022-09-21T01:02:59.318Z,10.33
2022-09-21T01:05:26.419Z,12.13
2022-09-21T01:07:53.893Z,8.60
2022-09-21T01:10:21.428Z,8.20
2022-09-21T01:12:56.467Z,6.97
2022-09-21T01:15:29.710Z,6.07
2022-09-21T01:18:01.293Z,7.17
2022-09-21T01:20:35.350Z,6.33
2022-09-21T01:23:12.977Z,6.27
2022-09-21T01:25:46.565Z,6.90
2022-09-21T01:28:25.986Z,6.40
2022-09-21T01:30:54.871Z,6.93
2022-09-21T01:33:24.032Z,5.80
2022-09-21T01:35:53.469Z,8.60
2022-09-21T01:38:22.533Z,8.13
2022-09-21T01:40:51.439Z,8.10
2022-09-21T01:43:20.805Z,7.93
2022-09-21T01:45:50.172Z,10.50
2022-09-21T01:48:18.894Z,7.90
2022-09-21T01:50:47.887Z,7.83
2022-09-21T01:53:19.060Z,5.53
2022-09-21T01:55:47.708Z,8.50
2022-09-21T01:58:16.807Z,5.93
2022-09-21T02:00:44.736Z,5.73
2022-09-21T02:03:13.574Z,5.67
2022-09-21T02:05:42.576Z,6.93
2022-09-21T02:08:10.711Z,6.30
2022-09-21T02:10:40.429Z,6.47
2022-09-21T02:13:08.870Z,6.70
2022-09-21T02:15:44.748Z,6.97
2022-09-21T02:18:15.905Z,6.23
2022-09-21T02:20:48.757Z,6.67
2022-09-21T02:23:20.002Z,7.40
2022-09-21T02:25:50.417Z,7.23
2022-09-21T02:28:23.706Z,7.37
2022-09-21T02:30:54.308Z,8.40
2022-09-21T02:33:27.138Z,8.57
2022-09-21T02:35:56.594Z,7.60
2022-09-21T02:38:29.024Z,8.77
2022-09-21T02:41:00.708Z,6.17
2022-09-21T02:43:31.378Z,5.77
2022-09-21T02:46:00.850Z,7.23
2022-09-21T02:48:31.778Z,6.23
2022-09-21T02:51:04.057Z,5.80
2022-09-21T02:53:32.842Z,6.17
2022-09-21T02:56:00.749Z,5.87
2022-09-21T02:58:29.133Z,6.37
2022-09-21T03:00:56.800Z,5.33
2022-09-21T03:03:24.712Z,6.53
2022-09-21T03:05:53.665Z,8.23
2022-09-21T03:08:22.347Z,5.73
2022-09-21T03:10:49.559Z,5.43
2022-09-21T03:13:16.777Z,6.80
2022-09-21T03:15:44.008Z,6.20
2022-09-21T03:18:11.543Z,6.20
2022-09-21T03:20:39.307Z,7.20
2022-09-21T03:23:06.451Z,6.53
2022-09-21T03:25:34.925Z,8.73
2022-09-21T03:28:02.344Z,6.80
2022-09-21T03:30:29.472Z,7.60
2022-09-21T03:32:56.668Z,8.60
2022-09-21T03:35:25.128Z,6.70
2022-09-21T03:37:52.230Z,9.33
2022-09-21T03:40:19.723Z,9.50
2022-09-21T03:42:48.171Z,8.83
2022-09-21T03:45:15.404Z,7.13
2022-09-21T03:47:42.508Z,8.10
2022-09-21T03:50:10.420Z,7.47
2022-09-21T03:52:37.688Z,7.83
2022-09-21T03:55:05.328Z,7.40
2022-09-21T03:57:32.450Z,7.70
2022-09-21T04:00:01.026Z,5.40
2022-09-21T04:02:28.126Z,7.67
2022-09-21T04:04:55.253Z,6.93
2022-09-21T04:07:22.386Z,9.33
2022-09-21T04:09:49.451Z,7.90
2022-09-21T04:12:16.530Z,7.60
2022-09-21T04:14:43.616Z,6.60
2022-09-21T04:17:12.097Z,7.10
2022-09-21T04:19:39.382Z,6.60
2022-09-21T04:22:06.454Z,6.00
2022-09-21T04:24:33.571Z,7.70
2022-09-21T04:27:00.678Z,8.00
2022-09-21T04:29:27.842Z,6.97
2022-09-21T04:31:54.943Z,6.90
2022-09-21T04:34:23.383Z,7.63
2022-09-21T04:36:50.454Z,6.43
2022-09-21T04:39:17.561Z,6.70
2022-09-21T04:41:44.647Z,6.67
2022-09-21T04:44:11.754Z,6.20
2022-09-21T04:46:38.853Z,6.77
2022-09-21T04:49:05.971Z,7.30
2022-09-21T04:51:34.383Z,7.63
2022-09-21T04:54:01.611Z,7.23
2022-09-21T04:56:28.706Z,6.57
2022-09-21T04:58:55.833Z,8.13
2022-09-21T05:01:23.053Z,6.90
2022-09-21T05:03:50.195Z,8.20
2022-09-21T05:06:17.380Z,7.53
2022-09-21T05:08:45.814Z,6.40
2022-09-21T05:11:13.727Z,6.53
2022-09-21T05:13:41.026Z,7.40
2022-09-21T05:16:08.574Z,7.90
2022-09-21T05:18:35.789Z,7.00
2022-09-21T05:21:03.627Z,7.83
2022-09-21T05:23:31.495Z,6.70
2022-09-21T05:26:00.257Z,6.97
2022-09-21T05:28:27.839Z,7.03
2022-09-21T05:31:16.738Z,8.00
2022-09-21T05:33:48.281Z,7.10
2022-09-21T05:36:24.086Z,7.13
2022-09-21T05:38:51.421Z,8.60
2022-09-21T05:41:20.198Z,9.93
2022-09-21T05:43:47.739Z,8.20
2022-09-21T05:46:18.558Z,8.57
2022-09-21T05:48:48.888Z,7.90
2022-09-21T05:51:23.242Z,8.13
2022-09-21T05:53:53.898Z,7.07
2022-09-21T05:56:31.886Z,6.40
2022-09-21T05:59:04.507Z,7.40
2022-09-21T06:01:38.972Z,7.67
2022-09-21T06:04:10.199Z,6.17
2022-09-21T06:06:37.308Z,6.17
2022-09-21T06:09:04.405Z,6.50
2022-09-21T06:11:33.025Z,5.37
2022-09-21T06:14:01.032Z,5.57
2022-09-21T06:16:28.173Z,5.37
2022-09-21T06:18:55.321Z,5.37
2022-09-21T06:21:22.441Z,4.77
2022-09-21T06:23:49.572Z,5.03
2022-09-21T06:26:16.734Z,5.43
2022-09-21T06:28:45.169Z,5.00
2022-09-21T06:31:12.972Z,5.27
2022-09-21T06:33:40.903Z,5.77
2022-09-21T06:36:10.021Z,4.43
2022-09-21T06:38:37.130Z,5.57
2022-09-21T06:41:04.890Z,4.57
2022-09-21T06:43:32.354Z,5.83
2022-09-21T06:46:01.943Z,5.90
2022-09-21T06:48:29.671Z,4.57
2022-09-21T06:51:00.162Z,5.20
2022-09-21T06:53:27.419Z,4.33
2022-09-21T06:55:54.501Z,5.47
2022-09-21T06:58:21.634Z,5.20
2022-09-21T07:00:48.808Z,5.00
2022-09-21T07:03:17.319Z,4.93
2022-09-21T07:05:45.381Z,5.80
2022-09-21T07:10:59.955Z,6.03
2022-09-21T07:13:27.326Z,5.63
2022-09-21T07:15:54.545Z,6.23
2022-09-21T07:18:22.991Z,6.60
2022-09-21T07:20:50.165Z,6.37
2022-09-21T07:23:18.420Z,7.37
2022-09-21T07:25:45.903Z,7.27
2022-09-21T07:28:13.478Z,7.47
2022-09-21T07:30:40.996Z,8.00
2022-09-21T07:33:08.436Z,8.20
2022-09-21T07:35:36.888Z,8.37
2022-09-21T07:38:05.262Z,7.80
2022-09-21T07:40:32.444Z,8.20
2022-09-21T07:42:59.861Z,7.47
2022-09-21T07:45:27.190Z,7.60
2022-09-21T07:47:54.323Z,7.80
2022-09-21T07:50:21.422Z,7.30
2022-09-21T07:52:49.874Z,7.57
2022-09-21T07:55:17.022Z,7.00
2022-09-21T07:57:44.098Z,7.77
2022-09-21T08:00:11.846Z,7.90
2022-09-21T08:02:40.857Z,6.90
2022-09-21T08:05:10.993Z,7.90
2022-09-21T08:07:38.095Z,8.33
2022-09-21T08:10:07.126Z,7.03
2022-09-21T08:12:34.238Z,7.23
2022-09-21T08:15:01.354Z,7.83
2022-09-21T08:17:28.473Z,6.63
2022-09-21T08:19:55.536Z,6.63
2022-09-21T08:22:22.639Z,7.20
2022-09-21T08:24:49.768Z,6.90
2022-09-21T08:27:18.209Z,7.20
2022-09-21T08:30:10.087Z,6.90
2022-09-21T08:32:50.356Z,7.43
2022-09-21T08:35:18.815Z,6.23
2022-09-21T08:37:45.882Z,6.30
2022-09-21T08:40:13.027Z,6.10
2022-09-21T08:42:50.692Z,6.60
2022-09-21T08:45:19.621Z,5.87
2022-09-21T08:47:47.941Z,6.43
2022-09-21T08:50:23.590Z,6.50
2022-09-21T08:52:52.953Z,6.03
2022-09-21T08:55:20.944Z,6.37
2022-09-21T08:57:49.424Z,5.73
2022-09-21T09:00:17.774Z,5.83
2022-09-21T09:02:52.140Z,6.10
2022-09-21T09:05:29.297Z,5.63
2022-09-21T09:08:05.871Z,5.73
2022-09-21T09:10:38.350Z,6.30
2022-09-21T09:13:15.780Z,6.57
2022-09-21T09:15:49.714Z,5.90
2022-09-21T09:18:21.291Z,5.67
2022-09-21T09:20:50.177Z,4.97
2022-09-21T09:23:20.849Z,6.05
2022-09-21T09:25:50.552Z,4.95
2022-09-21T09:28:28.102Z,5.35
2022-09-21T09:30:58.108Z,5.90
2022-09-21T09:33:27.232Z,5.25
2022-09-21T09:35:56.507Z,5.93
2022-09-21T09:38:25.940Z,4.90
2022-09-21T09:40:58.437Z,5.40
2022-09-21T09:43:35.344Z,4.88
2022-09-21T09:46:08.192Z,4.57
2022-09-21T09:48:54.188Z,4.35
2022-09-21T09:51:21.612Z,3.55
2022-09-21T09:53:48.687Z,3.70
2022-09-21T09:56:15.783Z,3.92
2022-09-21T09:58:46.868Z,4.18
2022-09-21T10:01:29.089Z,3.47
2022-09-21T10:04:05.272Z,3.97
2022-09-21T10:06:32.925Z,3.53
2022-09-21T10:09:00.049Z,4.20
2022-09-21T10:11:35.235Z,3.13
2022-09-21T10:14:09.956Z,3.08
2022-09-21T10:16:41.004Z,2.85
2022-09-21T10:19:14.971Z,3.85
2022-09-21T10:21:42.485Z,3.55
2022-09-21T10:24:15.126Z,3.33
2022-09-21T10:26:44.125Z,3.05
2022-09-21T10:29:19.870Z,3.17
2022-09-21T10:31:56.356Z,2.90
2022-09-21T10:34:24.026Z,2.60
2022-09-21T10:36:52.614Z,3.30
2022-09-21T10:39:20.969Z,3.13
2022-09-21T10:41:49.446Z,2.60
2022-09-21T10:44:17.104Z,3.03
2022-09-21T10:46:45.951Z,2.80
2022-09-21T10:49:16.155Z,2.93
2022-09-21T10:51:46.195Z,2.60
2022-09-21T10:54:17.064Z,2.57
2022-09-21T10:56:51.045Z,3.07
2022-09-21T10:59:22.476Z,2.43
2022-09-21T11:01:51.715Z,2.20
2022-09-21T11:04:23.201Z,2.60
2022-09-21T11:06:52.237Z,2.43
2022-09-21T11:09:21.277Z,2.23
2022-09-21T11:11:51.535Z,2.20
2022-09-21T11:14:21.293Z,2.57
2022-09-21T11:16:52.113Z,3.07
2022-09-21T11:19:28.205Z,3.27
2022-09-21T11:21:57.693Z,2.27
2022-09-21T11:24:29.387Z,2.43
2022-09-21T11:26:59.634Z,2.20
2022-09-21T11:29:28.379Z,2.73
2022-09-21T11:32:05.800Z,2.10
2022-09-21T11:34:57.485Z,2.10
2022-09-21T11:37:35.913Z,2.60
2022-09-21T11:40:10.608Z,2.13
2022-09-21T11:42:45.921Z,2.60
2022-09-21T11:45:21.584Z,2.57
2022-09-21T11:47:54.594Z,2.20
2022-09-21T11:50:34.157Z,2.13
2022-09-21T11:53:10.955Z,1.90
2022-09-21T11:55:48.510Z,1.60
2022-09-21T11:58:21.010Z,2.13
2022-09-21T12:00:53.739Z,1.70
2022-09-21T12:03:42.111Z,2.10
2022-09-21T12:06:17.523Z,1.93
2022-09-21T12:08:59.533Z,1.90
2022-09-21T12:11:32.610Z,2.23
2022-09-21T12:14:03.234Z,2.20
2022-09-21T12:16:34.963Z,2.03
2022-09-21T12:19:07.650Z,1.63
2022-09-21T12:21:35.937Z,1.47
2022-09-21T12:24:04.985Z,1.97
2022-09-21T12:26:36.875Z,1.80
2022-09-21T12:29:05.976Z,2.77
2022-09-21T12:31:36.408Z,1.93
2022-09-21T12:34:05.601Z,1.77
2022-09-21T12:36:39.492Z,1.63
2022-09-21T12:39:13.724Z,2.37
2022-09-21T12:41:45.088Z,1.60
2022-09-21T12:44:17.309Z,1.40
2022-09-21T12:46:45.894Z,2.00
2022-09-21T12:49:16.356Z,1.80
2022-09-21T12:51:44.449Z,1.80
2022-09-21T12:54:17.742Z,1.73
2022-09-21T12:56:49.771Z,2.00
2022-09-21T12:59:25.736Z,2.00
2022-09-21T13:01:57.732Z,1.50
2022-09-21T13:04:37.494Z,1.73
2022-09-21T13:07:12.984Z,1.83
2022-09-21T13:09:41.239Z,1.70
2022-09-21T13:12:15.017Z,1.37
2022-09-21T13:14:44.206Z,1.20
2022-09-21T13:17:19.869Z,1.63
2022-09-21T13:19:56.345Z,1.40
2022-09-21T13:22:24.426Z,1.17
2022-09-21T13:24:59.100Z,1.50
2022-09-21T13:27:49.020Z,1.40
2022-09-21T13:30:20.061Z,1.20
2022-09-21T13:32:51.769Z,1.33
2022-09-21T13:35:51.012Z,1.47
2022-09-21T13:38:24.805Z,1.67
2022-09-21T13:40:57.483Z,1.27
2022-09-21T13:43:42.017Z,1.30
2022-09-21T13:46:09.270Z,1.63
2022-09-21T13:48:36.447Z,1.23
2022-09-21T13:51:07.964Z,1.60
2022-09-21T13:53:37.023Z,1.13
2022-09-21T13:56:07.803Z,1.70
2022-09-21T13:58:40.807Z,1.37
2022-09-21T14:01:35.403Z,1.23
2022-09-21T14:04:02.085Z,1.60
2022-09-21T14:06:32.343Z,1.60
2022-09-21T14:09:00.758Z,1.30
2022-09-21T14:11:30.902Z,1.87
2022-09-21T14:14:08.656Z,1.23
2022-09-21T14:16:55.040Z,1.90
2022-09-21T14:19:40.736Z,1.80
2022-09-21T14:22:26.683Z,1.30
2022-09-21T14:25:08.701Z,1.60
2022-09-21T14:27:44.863Z,1.20
2022-09-21T14:30:19.424Z,2.03
2022-09-21T14:32:50.555Z,1.47
2022-09-21T14:35:19.386Z,1.70
2022-09-21T14:37:48.212Z,1.60
2022-09-21T14:40:18.193Z,2.10
2022-09-21T14:42:45.448Z,1.90
2022-09-21T14:45:16.034Z,1.63
2022-09-21T14:47:51.167Z,1.83
2022-09-21T14:50:23.287Z,1.40
2022-09-21T14:53:00.601Z,1.83
2022-09-21T14:55:33.030Z,1.40
2022-09-21T14:58:14.139Z,2.70
2022-09-21T15:00:42.124Z,1.80
2022-09-21T15:03:29.158Z,2.47
2022-09-21T15:05:57.544Z,1.57
2022-09-21T15:08:31.822Z,1.40
2022-09-21T15:11:02.657Z,1.53
2022-09-21T15:13:42.735Z,2.13
2022-09-21T15:16:23.893Z,2.47
2022-09-21T15:19:00.512Z,1.67
2022-09-21T15:21:28.644Z,1.77
2022-09-21T15:23:56.130Z,1.30
2022-09-21T15:26:24.767Z,1.50
2022-09-21T15:29:10.657Z,1.33
2022-09-21T15:31:39.027Z,1.63
2022-09-21T15:34:08.335Z,1.70
2022-09-21T15:36:36.625Z,1.63
2022-09-21T15:39:03.837Z,1.97
2022-09-21T15:41:38.566Z,1.50
2022-09-21T15:44:07.992Z,1.30
2022-09-21T15:46:35.192Z,1.40
2022-09-21T15:49:02.364Z,1.70
2022-09-21T15:51:32.337Z,1.73
2022-09-21T15:54:09.021Z,1.80
2022-09-21T15:56:36.221Z,1.43
2022-09-21T15:59:04.088Z,1.30
2022-09-21T16:01:31.256Z,1.40
2022-09-21T16:04:03.512Z,1.37
2022-09-21T16:06:36.620Z,1.33
2022-09-21T16:09:28.100Z,1.40
2022-09-21T16:11:55.582Z,1.40
2022-09-21T16:14:22.748Z,1.13
2022-09-21T16:17:06.764Z,1.70
2022-09-21T16:19:40.548Z,1.83
2022-09-21T16:22:11.786Z,1.40
2022-09-21T16:24:44.427Z,1.20
2022-09-21T16:27:16.058Z,1.60
2022-09-21T16:29:44.654Z,1.50
2022-09-21T16:32:20.817Z,1.33
2022-09-21T16:34:48.394Z,1.20
2022-09-21T16:37:25.560Z,1.90
2022-09-21T16:39:52.689Z,1.40
2022-09-21T16:42:20.041Z,1.37
2022-09-21T16:44:47.796Z,1.30
2022-09-21T16:47:15.593Z,1.20
2022-09-21T16:49:42.915Z,1.30
2022-09-21T16:52:10.054Z,1.60
2022-09-21T16:54:38.564Z,1.50
2022-09-21T16:57:06.629Z,1.83
2022-09-21T16:59:34.264Z,1.53
2022-09-21T17:02:01.413Z,1.50
2022-09-21T17:04:29.356Z,1.53
2022-09-21T17:06:56.614Z,1.70
2022-09-21T17:09:29.147Z,1.40
2022-09-21T17:11:58.942Z,1.50
2022-09-21T17:14:26.098Z,1.40
2022-09-21T17:16:55.007Z,1.50
2022-09-21T17:19:22.173Z,1.43
2022-09-21T17:21:49.893Z,1.60
2022-09-21T17:24:38.904Z,1.37
2022-09-21T17:27:05.553Z,1.77
2022-09-21T17:29:32.658Z,1.60
2022-09-21T17:31:59.770Z,1.63
2022-09-21T17:34:27.697Z,1.57
2022-09-21T17:36:55.229Z,1.80
2022-09-21T17:39:23.157Z,1.47
2022-09-21T17:41:51.509Z,1.53
2022-09-21T17:44:27.705Z,1.57
2022-09-21T17:46:57.216Z,2.10
2022-09-21T17:49:24.523Z,1.90
2022-09-21T17:51:51.854Z,1.60
2022-09-21T17:54:19.279Z,2.07
2022-09-21T17:56:48.147Z,1.63
2022-09-21T17:59:23.550Z,2.80
2022-09-21T18:01:52.224Z,1.70
2022-09-21T18:04:19.581Z,2.73
2022-09-21T18:06:46.924Z,1.53
2022-09-21T18:09:14.326Z,1.60
2022-09-21T18:11:51.057Z,1.93
2022-09-21T18:14:23.894Z,1.67
2022-09-21T18:16:58.102Z,1.50
2022-09-21T18:19:30.441Z,2.53
2022-09-21T18:22:00.041Z,2.00
2022-09-21T18:24:31.047Z,1.40
2022-09-21T18:26:58.881Z,1.70
2022-09-21T18:29:41.992Z,1.80
2022-09-21T18:32:20.495Z,1.67
2022-09-21T18:34:54.409Z,1.63
2022-09-21T18:37:25.013Z,1.93
2022-09-21T18:39:55.496Z,1.57
2022-09-21T18:42:28.221Z,1.40
2022-09-21T18:44:57.579Z,1.80
2022-09-21T18:47:28.557Z,1.70
2022-09-21T18:49:58.998Z,1.43
2022-09-21T18:52:34.770Z,2.07
2022-09-21T18:55:01.999Z,2.10
2022-09-21T18:57:29.289Z,2.40
2022-09-21T18:59:56.726Z,2.33
2022-09-21T19:02:24.169Z,2.40
2022-09-21T19:04:53.033Z,2.20
2022-09-21T19:07:24.436Z,2.10
2022-09-21T19:09:57.085Z,1.73
2022-09-21T19:12:27.262Z,2.00
2022-09-21T19:14:57.963Z,1.90
2022-09-21T19:17:36.224Z,1.93
2022-09-21T19:20:10.602Z,1.80
2022-09-21T19:22:41.176Z,1.93
2022-09-21T19:25:12.723Z,2.20
2022-09-21T19:27:40.740Z,2.40
2022-09-21T19:30:09.445Z,2.67
2022-09-21T19:32:39.267Z,2.60
2022-09-21T19:35:21.017Z,1.93
2022-09-21T19:37:48.547Z,3.40
2022-09-21T19:40:16.479Z,2.80
2022-09-21T19:42:51.326Z,3.20
2022-09-21T19:45:22.630Z,3.40
2022-09-21T19:47:51.024Z,2.90
2022-09-21T19:50:19.247Z,2.80
2022-09-21T19:52:48.022Z,3.10
2022-09-21T19:55:16.519Z,3.07
2022-09-21T19:57:43.890Z,3.17
2022-09-21T20:00:12.709Z,3.03
2022-09-21T20:02:42.353Z,3.60
2022-09-21T20:05:12.749Z,3.50
2022-09-21T20:07:43.431Z,4.03
2022-09-21T20:10:23.695Z,3.67
2022-09-21T20:12:55.916Z,4.83
2022-09-21T20:15:24.478Z,3.90
2022-09-21T20:17:54.095Z,4.07
2022-09-21T20:20:23.002Z,4.07
2022-09-21T20:22:50.217Z,4.50
2022-09-21T20:25:20.369Z,3.97
2022-09-21T20:27:48.918Z,3.67
2022-09-21T20:30:17.227Z,3.90
2022-09-21T20:32:45.568Z,3.83
2022-09-21T20:35:15.589Z,4.67
2022-09-21T20:37:42.708Z,4.03
2022-09-21T20:40:10.184Z,4.30
2022-09-21T20:42:38.675Z,4.00
2022-09-21T20:45:06.680Z,3.90
2022-09-21T20:47:33.847Z,4.20
2022-09-21T20:50:00.971Z,4.03
2022-09-21T20:52:28.112Z,3.63
2022-09-21T20:54:55.236Z,3.70
2022-09-21T20:57:22.372Z,3.80
2022-09-21T20:59:50.817Z,3.50
2022-09-21T21:02:17.894Z,4.00
2022-09-21T21:04:45.005Z,3.30
2022-09-21T21:07:12.130Z,3.63
2022-09-21T21:09:39.257Z,4.00
2022-09-21T21:12:06.515Z,4.60
2022-09-21T21:14:33.635Z,4.03
2022-09-21T21:17:02.066Z,4.07
2022-09-21T21:19:29.290Z,4.37
2022-09-21T21:21:56.403Z,4.23
2022-09-21T21:24:23.515Z,3.67
2022-09-21T21:27:01.644Z,3.77
2022-09-21T21:29:29.157Z,4.27
2022-09-21T21:31:56.325Z,4.03
2022-09-21T21:34:25.045Z,3.93
2022-09-21T21:36:52.128Z,4.20
2022-09-21T21:39:19.311Z,4.00
2022-09-21T21:41:46.423Z,3.77
2022-09-21T21:44:13.571Z,3.70
2022-09-21T21:46:40.679Z,4.70
2022-09-21T21:49:07.803Z,3.00
2022-09-21T21:51:36.290Z,4.67
2022-09-21T21:54:03.422Z,3.97
2022-09-21T21:56:30.532Z,4.13
2022-09-21T21:58:58.026Z,3.90
2022-09-21T22:01:26.363Z,4.73
2022-09-21T22:03:54.343Z,4.67
2022-09-21T22:06:21.706Z,4.20
2022-09-21T22:08:50.305Z,5.23
2022-09-21T22:11:17.606Z,4.83
2022-09-21T22:13:45.348Z,4.47
2022-09-21T22:16:13.348Z,4.20
2022-09-21T22:18:40.837Z,7.40
2022-09-21T22:21:08.684Z,4.40
2022-09-21T22:23:36.078Z,4.43
2022-09-21T22:26:06.505Z,4.60
2022-09-21T22:28:34.059Z,4.40
2022-09-21T22:31:01.612Z,4.47
2022-09-21T22:33:33.158Z,3.90
2022-09-21T22:36:03.896Z,3.70
2022-09-21T22:38:31.122Z,3.80
2022-09-21T22:41:02.480Z,4.30
2022-09-21T22:43:31.056Z,5.67
2022-09-21T22:45:58.223Z,7.60
2022-09-21T22:48:25.531Z,9.97
2022-09-21T22:50:52.855Z,10.53
2022-09-21T22:53:20.121Z,7.67
2022-09-21T22:55:47.230Z,8.17
2022-09-21T22:58:14.695Z,4.17
2022-09-21T23:00:43.178Z,4.43
2022-09-21T23:03:10.301Z,4.20
2022-09-21T23:05:37.380Z,4.03
2022-09-21T23:08:05.650Z,5.03
2022-09-21T23:10:32.716Z,4.60
2022-09-21T23:12:59.834Z,4.77
2022-09-21T23:15:26.896Z,4.90
2022-09-21T23:17:55.327Z,4.60
2022-09-21T23:20:22.451Z,4.83
2022-09-21T23:22:51.903Z,4.87
2022-09-21T23:25:19.075Z,4.77
2022-09-21T23:27:46.155Z,4.10
2022-09-21T23:30:13.311Z,4.87
2022-09-21T23:32:40.409Z,4.80
2022-09-21T23:35:09.053Z,4.87
2022-09-21T23:37:36.125Z,5.07
2022-09-21T23:40:03.310Z,4.00
2022-09-21T23:42:30.497Z,4.30
2022-09-21T23:44:57.601Z,5.13
2022-09-21T23:47:24.689Z,5.00
2022-09-21T23:49:51.833Z,5.40
2022-09-21T23:52:20.325Z,6.00
2022-09-21T23:54:47.425Z,5.10
2022-09-21T23:57:14.516Z,5.10
2022-09-21T23:59:41.589Z,5.70
